createdAt,value
2023-04-30T00:15:03.419Z,14.23
2023-04-30T00:17:36.707Z,13.79
2023-04-30T00:20:12.482Z,13.82
2023-04-30T00:22:45.713Z,13.35
2023-04-30T00:25:19.436Z,13.98
2023-04-30T00:27:52.981Z,13.51
2023-04-30T00:40:46.396Z,13.36
2023-04-30T00:43:27.221Z,13.11
2023-04-30T00:46:00.711Z,13.08
2023-04-30T00:48:34.428Z,13.06
2023-04-30T00:51:08.076Z,12.71
2023-04-30T00:53:42.457Z,13.08
2023-04-30T01:06:54.454Z,13.14
2023-04-30T01:09:28.764Z,13.11
2023-04-30T01:12:14.421Z,13.08
2023-04-30T01:15:01.061Z,13.21
2023-04-30T01:17:50.506Z,12.59
2023-04-30T01:34:27.392Z,13.06
2023-04-30T01:37:25.444Z,12.87
2023-04-30T01:40:22.420Z,13.53
2023-04-30T01:43:16.445Z,13.73
2023-04-30T01:46:04.069Z,12.84
2023-04-30T01:49:00.029Z,13.03
2023-04-30T02:02:13.425Z,13.36
2023-04-30T02:04:46.894Z,13.55
2023-04-30T02:07:38.432Z,13.44
2023-04-30T02:10:12.033Z,13.11
2023-04-30T02:12:46.410Z,13.42
2023-04-30T02:26:31.401Z,13.50
2023-04-30T02:29:04.701Z,13.82
2023-04-30T02:31:38.423Z,13.60
2023-04-30T02:34:11.666Z,13.76
2023-04-30T02:36:45.421Z,13.88
2023-04-30T02:39:18.652Z,13.79
2023-04-30T02:55:34.417Z,13.90
2023-04-30T02:58:07.670Z,14.12
2023-04-30T03:00:41.410Z,13.94
2023-04-30T03:03:14.979Z,14.01
2023-04-30T03:05:48.409Z,13.84
2023-04-30T03:08:21.660Z,13.93
2023-04-30T03:21:12.391Z,13.88
2023-04-30T03:23:52.401Z,13.26
2023-04-30T03:26:25.841Z,13.58
2023-04-30T03:28:59.409Z,13.41
2023-04-30T03:31:32.821Z,13.67
2023-04-30T03:34:06.431Z,13.18
2023-04-30T03:47:08.430Z,12.95
2023-04-30T03:49:41.910Z,12.82
2023-04-30T03:52:16.435Z,12.68
2023-04-30T03:54:50.189Z,12.40
2023-04-30T03:57:24.424Z,12.80
2023-04-30T03:59:58.740Z,12.18
2023-04-30T04:02:34.517Z,12.20
2023-04-30T04:15:47.442Z,10.91
2023-04-30T04:18:23.396Z,11.02
2023-04-30T04:20:56.418Z,11.21
2023-04-30T04:23:30.780Z,10.75
2023-04-30T04:26:04.443Z,11.09
2023-04-30T04:28:38.011Z,11.01
2023-04-30T04:41:28.375Z,9.97
2023-04-30T04:44:10.397Z,9.26
2023-04-30T04:46:43.738Z,9.08
2023-04-30T04:49:17.406Z,8.51
2023-04-30T04:51:52.187Z,8.15
2023-04-30T04:54:26.995Z,7.38
2023-04-30T05:07:39.423Z,6.50
2023-04-30T05:10:12.681Z,6.26
2023-04-30T05:12:46.400Z,6.26
2023-04-30T05:15:19.676Z,6.15
2023-04-30T05:17:53.469Z,6.00
2023-04-30T05:24:15.447Z,5.69
2023-04-30T05:34:00.371Z,5.68
2023-04-30T05:36:40.849Z,5.60
2023-04-30T05:39:17.595Z,5.77
2023-04-30T05:41:52.894Z,5.72
2023-04-30T05:44:26.679Z,6.12
2023-04-30T05:47:00.412Z,6.49
2023-04-30T05:49:35.801Z,6.85
2023-04-30T06:02:26.523Z,7.05
2023-04-30T06:05:06.463Z,6.68
2023-04-30T06:07:39.629Z,6.61
2023-04-30T06:10:15.455Z,6.15
2023-04-30T06:12:48.895Z,6.11
2023-04-30T06:29:04.412Z,4.80
2023-04-30T06:31:37.733Z,4.90
2023-04-30T06:34:14.399Z,5.10
2023-04-30T06:36:47.622Z,4.85
2023-04-30T06:39:23.409Z,4.68
2023-04-30T06:41:56.632Z,4.44
2023-04-30T06:44:32.427Z,4.33
2023-04-30T06:54:17.372Z,4.70
2023-04-30T06:56:57.413Z,4.29
2023-04-30T06:59:32.593Z,4.24
2023-04-30T07:02:08.051Z,4.40
2023-04-30T07:04:41.770Z,4.42
2023-04-30T07:07:15.395Z,4.60
2023-04-30T07:09:50.330Z,4.90
2023-04-30T07:23:03.365Z,5.37
2023-04-30T07:25:43.413Z,5.14
2023-04-30T07:28:16.618Z,5.27
2023-04-30T07:30:50.387Z,5.54
2023-04-30T07:33:23.652Z,5.25
2023-04-30T07:49:39.394Z,6.38
2023-04-30T07:52:12.752Z,6.88
2023-04-30T07:54:46.432Z,7.35
2023-04-30T07:57:19.827Z,7.93
2023-04-30T07:59:53.400Z,8.54
2023-04-30T08:02:26.834Z,8.90
2023-04-30T08:14:32.372Z,7.26
2023-04-30T08:17:12.398Z,6.65
2023-04-30T08:19:45.680Z,6.46
2023-04-30T08:22:21.413Z,5.89
2023-04-30T08:24:54.718Z,5.58
2023-04-30T08:27:28.451Z,4.93
2023-04-30T08:41:12.397Z,4.84
2023-04-30T08:43:45.622Z,4.73
2023-04-30T08:46:19.434Z,4.77
2023-04-30T08:48:52.866Z,4.80
2023-04-30T08:51:28.517Z,4.77
2023-04-30T08:54:01.677Z,5.18
2023-04-30T09:10:25.182Z,7.28
2023-04-30T09:12:59.728Z,7.14
2023-04-30T09:15:37.444Z,7.23
2023-04-30T09:18:12.852Z,7.10
2023-04-30T09:21:02.397Z,7.38
2023-04-30T09:23:35.804Z,6.61
2023-04-30T09:36:26.350Z,5.50
2023-04-30T09:39:15.453Z,5.14
2023-04-30T09:41:50.736Z,4.93
2023-04-30T09:44:34.412Z,4.82
2023-04-30T09:47:11.251Z,4.86
2023-04-30T09:49:55.577Z,5.04
2023-04-30T10:03:12.458Z,4.59
2023-04-30T10:05:47.854Z,4.95
2023-04-30T10:08:32.375Z,4.66
2023-04-30T10:11:08.215Z,4.23
2023-04-30T10:13:49.640Z,4.25
2023-04-30T10:30:29.379Z,4.01
2023-04-30T10:33:23.417Z,4.07
2023-04-30T10:36:02.646Z,4.01
2023-04-30T10:38:45.454Z,4.09
2023-04-30T10:41:20.173Z,4.18
2023-04-30T10:43:54.410Z,4.19
2023-04-30T10:57:18.384Z,3.74
2023-04-30T10:59:53.921Z,3.73
2023-04-30T11:02:27.446Z,3.88
2023-04-30T11:05:15.547Z,3.95
2023-04-30T11:07:57.373Z,3.68
2023-04-30T11:21:40.370Z,3.83
2023-04-30T11:24:13.631Z,3.97
2023-04-30T11:27:10.374Z,3.85
2023-04-30T11:29:45.266Z,3.66
2023-04-30T11:32:19.423Z,3.63
2023-04-30T11:34:54.189Z,3.54
2023-04-30T11:48:22.375Z,3.29
2023-04-30T11:51:02.414Z,3.33
2023-04-30T11:53:35.636Z,3.37
2023-04-30T11:56:10.415Z,3.43
2023-04-30T11:58:46.522Z,3.45
2023-04-30T12:01:20.466Z,3.34
2023-04-30T12:03:56.706Z,3.37
2023-04-30T12:16:53.427Z,3.28
2023-04-30T12:19:36.996Z,3.17
2023-04-30T12:22:10.754Z,3.42
2023-04-30T12:24:44.399Z,3.23
2023-04-30T12:27:17.715Z,3.22
2023-04-30T12:29:51.384Z,3.23
2023-04-30T12:43:10.405Z,2.91
2023-04-30T12:45:46.105Z,2.99
2023-04-30T12:48:21.388Z,3.04
2023-04-30T12:50:58.644Z,2.96
2023-04-30T12:53:38.413Z,2.83
2023-04-30T13:10:16.362Z,2.88
2023-04-30T13:12:59.414Z,2.90
2023-04-30T13:15:33.034Z,3.04
2023-04-30T13:18:06.381Z,2.64
2023-04-30T13:20:39.617Z,2.53
2023-04-30T13:23:14.437Z,2.60
2023-04-30T13:36:26.398Z,2.73
2023-04-30T13:39:00.210Z,2.69
2023-04-30T13:41:33.410Z,2.66
2023-04-30T13:44:06.781Z,2.64
2023-04-30T13:46:40.496Z,2.64
2023-04-30T13:49:13.666Z,2.95
2023-04-30T14:02:09.360Z,2.73
2023-04-30T14:05:02.045Z,2.53
2023-04-30T14:07:38.634Z,2.51
2023-04-30T14:10:14.536Z,2.59
2023-04-30T14:12:47.633Z,2.51
2023-04-30T14:15:22.408Z,2.61
2023-04-30T14:17:58.003Z,2.54
2023-04-30T14:30:24.352Z,2.87
2023-04-30T14:33:06.480Z,2.70
2023-04-30T14:35:39.689Z,2.63
2023-04-30T14:38:21.036Z,2.62
2023-04-30T14:40:54.624Z,3.17
2023-04-30T14:43:28.397Z,2.90
2023-04-30T14:56:40.373Z,2.70
2023-04-30T14:59:13.645Z,2.65
2023-04-30T15:01:47.393Z,2.55
2023-04-30T15:04:20.652Z,2.45
2023-04-30T15:06:54.390Z,2.56
2023-04-30T15:09:27.768Z,2.51
2023-04-30T15:22:27.369Z,2.68
2023-04-30T15:25:07.415Z,2.66
2023-04-30T15:27:40.656Z,2.63
2023-04-30T15:30:18.030Z,2.46
2023-04-30T15:32:51.702Z,2.70
2023-04-30T15:35:25.400Z,2.78
2023-04-30T15:38:00.592Z,2.50
2023-04-30T15:50:48.370Z,2.51
2023-04-30T15:53:30.383Z,2.62
2023-04-30T15:56:04.305Z,2.51
2023-04-30T15:58:37.422Z,2.47
2023-04-30T16:01:10.859Z,2.38
2023-04-30T16:03:44.545Z,2.45
2023-04-30T16:17:04.295Z,2.59
2023-04-30T16:19:37.910Z,2.36
2023-04-30T16:22:11.421Z,2.41
2023-04-30T16:24:44.708Z,2.31
2023-04-30T16:27:18.413Z,2.39
2023-04-30T16:29:51.610Z,2.71
2023-04-30T16:42:42.377Z,10.03
2023-04-30T16:45:22.391Z,35.16
2023-04-30T16:47:55.639Z,26.18
2023-04-30T16:50:29.396Z,18.97
2023-04-30T16:53:02.902Z,15.31
2023-04-30T16:55:36.429Z,12.29
2023-04-30T16:58:11.606Z,10.54
2023-04-30T17:11:09.366Z,20.07
2023-04-30T17:13:51.399Z,13.96
2023-04-30T17:16:24.778Z,16.06
2023-04-30T17:18:58.379Z,11.06
2023-04-30T17:21:31.622Z,8.55
2023-04-30T17:24:05.402Z,7.12
2023-04-30T17:37:17.618Z,5.95
2023-04-30T17:39:50.646Z,6.89
2023-04-30T17:42:24.429Z,7.61
2023-04-30T17:44:57.737Z,7.09
2023-04-30T17:47:31.444Z,6.69
2023-04-30T17:50:06.973Z,6.58
2023-04-30T18:02:57.437Z,5.73
2023-04-30T18:05:37.428Z,8.74
2023-04-30T18:08:10.669Z,11.62
2023-04-30T18:10:44.413Z,10.47
2023-04-30T18:13:17.642Z,8.94
2023-04-30T18:15:51.541Z,8.77
2023-04-30T18:18:26.802Z,7.65
2023-04-30T18:31:15.405Z,10.31
2023-04-30T18:33:57.402Z,11.03
2023-04-30T18:36:30.837Z,11.77
2023-04-30T18:39:05.239Z,13.87
2023-04-30T18:41:38.721Z,15.33
2023-04-30T18:44:12.411Z,14.65
2023-04-30T18:57:24.403Z,19.75
2023-04-30T18:59:57.860Z,19.90
2023-04-30T19:02:31.518Z,20.33
2023-04-30T19:05:05.437Z,20.29
2023-04-30T19:07:39.399Z,20.62
2023-04-30T19:10:12.926Z,20.43
2023-04-30T19:23:13.367Z,23.26
2023-04-30T19:25:54.432Z,24.10
2023-04-30T19:28:27.754Z,26.17
2023-04-30T19:31:01.463Z,27.25
2023-04-30T19:33:34.666Z,28.26
2023-04-30T19:36:08.401Z,29.35
2023-04-30T19:38:43.549Z,29.74
2023-04-30T19:51:31.397Z,31.03
2023-04-30T19:54:13.393Z,31.90
2023-04-30T19:56:46.762Z,32.67
2023-04-30T19:59:20.426Z,33.91
2023-04-30T20:01:53.886Z,35.95
2023-04-30T20:04:27.445Z,35.50
2023-04-30T20:17:39.441Z,36.74
2023-04-30T20:20:13.493Z,38.22
2023-04-30T20:22:46.455Z,41.45
2023-04-30T20:25:21.626Z,43.65
2023-04-30T20:27:55.414Z,42.37
2023-04-30T20:44:34.382Z,43.88
2023-04-30T20:47:15.249Z,42.61
2023-04-30T20:49:48.738Z,41.73
2023-04-30T20:52:22.398Z,41.68
2023-04-30T20:55:01.850Z,40.98
2023-04-30T20:57:43.422Z,40.12
2023-04-30T21:00:19.377Z,39.35
2023-04-30T21:10:09.449Z,41.93
2023-04-30T21:12:42.701Z,40.56
2023-04-30T21:15:18.425Z,40.12
2023-04-30T21:17:53.660Z,41.26
2023-04-30T21:20:27.411Z,46.30
2023-04-30T21:23:01.690Z,49.60
2023-04-30T21:39:17.410Z,82.12
2023-04-30T21:41:50.675Z,87.43
2023-04-30T21:44:24.437Z,91.81
2023-04-30T21:46:57.672Z,93.88
2023-04-30T21:49:32.451Z,94.54
2023-04-30T22:06:00.335Z,77.12
2023-04-30T22:08:34.406Z,73.30
2023-04-30T22:11:07.759Z,67.08
2023-04-30T22:13:41.429Z,57.83
2023-04-30T22:16:14.710Z,48.83
2023-04-30T22:18:48.420Z,39.35
2023-04-30T22:32:00.462Z,19.36
2023-04-30T22:34:39.197Z,18.15
2023-04-30T22:37:19.405Z,17.50
2023-04-30T22:39:52.709Z,17.20
2023-04-30T22:42:26.405Z,16.88
2023-04-30T22:45:07.743Z,15.81
2023-04-30T22:57:58.362Z,13.83
2023-04-30T23:00:43.523Z,13.54
2023-04-30T23:03:16.737Z,13.66
2023-04-30T23:05:50.393Z,13.30
2023-04-30T23:08:23.749Z,13.32
2023-04-30T23:24:39.420Z,13.82
2023-04-30T23:27:12.664Z,14.37
2023-04-30T23:29:46.446Z,15.25
2023-04-30T23:32:19.712Z,17.22
2023-04-30T23:34:53.406Z,20.11
2023-04-30T23:37:26.787Z,21.38
2023-04-30T23:40:02.396Z,20.85
2023-04-30T23:50:32.394Z,14.95
2023-04-30T23:53:12.389Z,14.55
2023-04-30T23:55:47.587Z,14.63
2023-04-30T23:58:22.439Z,13.89
